createdAt,value
2023-02-06T00:00:08.942Z,21.77
2023-02-06T00:05:12.643Z,17.50
2023-02-06T00:10:17.886Z,22.63
2023-02-06T00:15:22.065Z,25.42
2023-02-06T00:20:25.747Z,17.88
2023-02-06T00:25:30.910Z,18.52
2023-02-06T00:30:34.593Z,22.75
2023-02-06T00:35:38.307Z,21.70
2023-02-06T00:40:43.355Z,22.55
2023-02-06T00:45:47.079Z,16.80
2023-02-06T00:50:51.566Z,16.80
2023-02-06T00:55:56.687Z,26.25
2023-02-06T01:01:00.415Z,20.65
2023-02-06T01:06:04.219Z,20.90
2023-02-06T01:11:13.359Z,25.17
2023-02-06T01:16:19.654Z,20.30
2023-02-06T01:21:25.195Z,21.13
2023-02-06T01:26:30.494Z,26.40
2023-02-06T01:31:34.296Z,14.57
2023-02-06T01:36:41.238Z,17.23
2023-02-06T01:41:46.653Z,10.40
2023-02-06T01:46:52.037Z,22.55
2023-02-06T01:51:58.843Z,35.58
2023-02-06T01:57:07.878Z,17.38
2023-02-06T02:02:12.370Z,26.60
2023-02-06T02:07:26.466Z,17.90
2023-02-06T02:12:31.556Z,17.05
2023-02-06T02:17:45.287Z,25.00
2023-02-06T02:22:56.153Z,28.38
2023-02-06T02:28:21.225Z,21.38
2023-02-06T02:33:45.457Z,16.83
2023-02-06T02:38:59.784Z,21.20
2023-02-06T02:44:09.227Z,16.60
2023-02-06T02:49:17.530Z,19.45
2023-02-06T02:54:22.746Z,14.82
2023-02-06T02:59:32.319Z,18.13
2023-02-06T03:04:41.802Z,25.90
2023-02-06T03:09:58.823Z,16.55
2023-02-06T03:15:09.049Z,17.02
2023-02-06T03:20:13.745Z,15.48
2023-02-06T03:25:25.965Z,16.77
2023-02-06T03:30:31.021Z,18.00
2023-02-06T03:35:38.385Z,18.15
2023-02-06T03:40:46.855Z,21.48
2023-02-06T03:45:54.669Z,18.20
2023-02-06T03:51:02.565Z,17.45
2023-02-06T03:56:11.151Z,17.83
2023-02-06T04:01:15.454Z,9.60
2023-02-06T04:06:19.405Z,14.48
2023-02-06T04:11:24.417Z,21.42
2023-02-06T04:16:28.227Z,9.40
2023-02-06T04:21:31.842Z,17.08
2023-02-06T04:26:36.872Z,15.13
2023-02-06T04:31:40.678Z,20.92
2023-02-06T04:36:44.537Z,9.70
2023-02-06T04:41:49.591Z,20.60
2023-02-06T04:46:53.384Z,19.67
2023-02-06T04:51:57.094Z,18.70
2023-02-06T04:57:02.171Z,19.85
2023-02-06T05:02:05.980Z,18.63
2023-02-06T05:07:09.671Z,19.63
2023-02-06T05:12:14.716Z,16.15
2023-02-06T05:17:18.546Z,15.07
2023-02-06T05:22:22.791Z,10.60
2023-02-06T05:27:28.057Z,21.50
2023-02-06T05:32:31.819Z,17.00
2023-02-06T05:37:37.208Z,20.08
2023-02-06T05:42:42.421Z,17.52
2023-02-06T05:47:46.140Z,12.60
2023-02-06T05:52:49.865Z,18.35
2023-02-06T05:57:54.896Z,15.40
2023-02-06T06:02:58.667Z,12.35
2023-02-06T06:08:02.388Z,14.43
2023-02-06T06:13:08.437Z,19.35
2023-02-06T06:18:12.222Z,12.88
2023-02-06T06:23:15.950Z,17.77
2023-02-06T06:28:21.091Z,17.05
2023-02-06T06:33:24.824Z,14.27
2023-02-06T06:38:28.554Z,13.18
2023-02-06T06:43:33.722Z,12.38
2023-02-06T06:48:38.375Z,12.73
2023-02-06T06:53:42.160Z,12.35
2023-02-06T06:58:47.278Z,11.07
2023-02-06T07:03:51.038Z,15.70
2023-02-06T07:08:54.735Z,15.18
2023-02-06T07:13:59.962Z,13.15
2023-02-06T07:19:03.736Z,12.45
2023-02-06T07:24:08.202Z,18.70
2023-02-06T07:29:13.309Z,14.52
2023-02-06T07:34:17.802Z,21.27
2023-02-06T07:39:21.623Z,17.92
2023-02-06T07:44:27.115Z,16.70
2023-02-06T07:49:30.828Z,17.25
2023-02-06T07:54:34.594Z,17.73
2023-02-06T07:59:39.695Z,13.18
2023-02-06T08:04:43.609Z,11.82
2023-02-06T08:09:47.485Z,16.65
2023-02-06T08:14:52.543Z,16.75
2023-02-06T08:19:56.493Z,15.63
2023-02-06T08:25:00.229Z,18.23
2023-02-06T08:30:06.219Z,14.20
2023-02-06T08:35:10.187Z,13.18
2023-02-06T08:40:14.045Z,15.82
2023-02-06T08:45:19.475Z,30.70
2023-02-06T08:50:23.293Z,14.18
2023-02-06T08:55:26.999Z,23.00
2023-02-06T09:00:32.273Z,19.67
2023-02-06T09:05:36.218Z,21.70
2023-02-06T09:10:40.065Z,18.17
2023-02-06T09:15:52.142Z,10.18
2023-02-06T09:21:05.548Z,18.98
2023-02-06T09:26:09.656Z,12.55
2023-02-06T09:31:15.008Z,18.10
2023-02-06T09:36:21.115Z,22.15
2023-02-06T09:41:31.171Z,21.08
2023-02-06T09:46:40.258Z,19.10
2023-02-06T09:52:11.675Z,16.73
2023-02-06T09:57:20.895Z,16.83
2023-02-06T10:02:39.676Z,12.80
2023-02-06T10:07:57.335Z,15.88
2023-02-06T10:13:06.187Z,19.75
2023-02-06T10:18:17.460Z,18.02
2023-02-06T10:23:30.059Z,23.92
2023-02-06T10:28:35.694Z,20.05
2023-02-06T10:33:48.352Z,21.15
2023-02-06T10:39:10.638Z,13.50
2023-02-06T10:44:23.982Z,20.88
2023-02-06T10:49:34.989Z,13.40
2023-02-06T10:54:42.757Z,18.48
2023-02-06T10:59:53.521Z,13.95
2023-02-06T11:05:04.634Z,12.05
2023-02-06T11:10:09.312Z,13.77
2023-02-06T11:15:23.297Z,9.45
2023-02-06T11:20:32.007Z,13.43
2023-02-06T11:25:35.921Z,13.10
2023-02-06T11:30:44.104Z,15.93
2023-02-06T11:35:53.838Z,13.90
2023-02-06T11:41:00.783Z,10.68
2023-02-06T11:46:15.139Z,16.60
2023-02-06T11:51:20.288Z,17.50
2023-02-06T11:56:24.762Z,12.48
2023-02-06T12:01:28.518Z,18.98
2023-02-06T12:06:36.649Z,9.98
2023-02-06T12:11:49.675Z,12.20
2023-02-06T12:16:54.618Z,12.30
2023-02-06T12:22:05.280Z,22.15
2023-02-06T12:27:16.772Z,12.70
2023-02-06T12:32:25.344Z,16.90
2023-02-06T12:37:39.603Z,11.43
2023-02-06T12:42:46.619Z,12.77
2023-02-06T12:53:02.371Z,7.78
2023-02-06T12:58:06.538Z,6.43
2023-02-06T13:03:32.747Z,7.63
2023-02-06T13:08:45.194Z,9.95
2023-02-06T13:13:49.901Z,9.60
2023-02-06T13:18:54.504Z,8.65
2023-02-06T13:24:16.783Z,10.98
2023-02-06T13:29:25.285Z,9.32
2023-02-06T13:34:29.280Z,3.90
2023-02-06T13:39:34.878Z,6.07
2023-02-06T13:44:39.430Z,4.15
2023-02-06T13:50:40.390Z,7.70
2023-02-06T13:56:06.055Z,9.35
2023-02-06T14:01:17.000Z,9.60
2023-02-06T14:06:48.020Z,7.43
2023-02-06T14:12:22.115Z,10.65
2023-02-06T14:17:39.765Z,5.45
2023-02-06T14:22:50.416Z,12.23
2023-02-06T14:28:06.941Z,8.25
2023-02-06T14:33:28.127Z,7.03
2023-02-06T14:39:02.728Z,5.15
2023-02-06T14:44:14.590Z,12.02
2023-02-06T14:49:28.008Z,12.93
2023-02-06T14:54:34.582Z,5.97
2023-02-06T14:59:50.492Z,11.15
2023-02-06T15:04:54.433Z,12.48
2023-02-06T15:10:02.666Z,7.45
2023-02-06T15:15:19.114Z,9.57
2023-02-06T15:20:27.204Z,7.45
2023-02-06T15:25:46.827Z,15.93
2023-02-06T15:30:56.845Z,10.13
2023-02-06T15:36:03.256Z,4.90
2023-02-06T15:41:08.926Z,5.07
2023-02-06T15:46:15.630Z,11.15
2023-02-06T15:51:26.908Z,8.32
2023-02-06T15:56:33.167Z,9.18
2023-02-06T16:01:42.456Z,10.80
2023-02-06T16:06:47.293Z,8.02
2023-02-06T16:11:53.920Z,12.68
2023-02-06T16:17:01.278Z,9.00
2023-02-06T16:22:07.061Z,11.57
2023-02-06T16:27:18.954Z,13.85
2023-02-06T16:32:26.565Z,9.60
2023-02-06T16:37:31.999Z,13.38
2023-02-06T16:42:38.303Z,11.93
2023-02-06T16:47:43.520Z,7.10
2023-02-06T16:52:50.123Z,5.10
2023-02-06T16:57:56.424Z,10.13
2023-02-06T17:03:01.708Z,6.30
2023-02-06T17:08:14.935Z,6.63
2023-02-06T17:13:20.367Z,11.18
2023-02-06T17:18:25.560Z,6.68
2023-02-06T17:23:29.341Z,12.73
2023-02-06T17:28:33.099Z,10.40
2023-02-06T17:33:38.673Z,9.88
2023-02-06T17:38:42.379Z,10.50
2023-02-06T17:43:46.107Z,9.05
2023-02-06T17:48:51.595Z,12.15
2023-02-06T17:53:55.555Z,9.98
2023-02-06T17:58:59.435Z,14.43
2023-02-06T18:04:04.939Z,11.38
2023-02-06T18:09:08.667Z,10.15
2023-02-06T18:14:12.501Z,12.65
2023-02-06T18:19:23.938Z,10.68
2023-02-06T18:24:27.767Z,20.02
2023-02-06T18:29:43.733Z,20.73
2023-02-06T18:34:53.935Z,13.02
2023-02-06T18:39:58.461Z,14.57
2023-02-06T18:45:04.154Z,15.55
2023-02-06T18:50:10.545Z,15.68
2023-02-06T18:55:14.288Z,11.88
2023-02-06T19:00:19.568Z,9.85
2023-02-06T19:05:24.868Z,14.18
2023-02-06T19:10:29.313Z,24.83
2023-02-06T19:15:34.516Z,19.98
2023-02-06T19:20:42.447Z,10.05
2023-02-06T19:25:46.141Z,13.13
2023-02-06T19:30:50.040Z,16.67
2023-02-06T19:35:55.307Z,15.73
2023-02-06T19:41:05.639Z,14.57
2023-02-06T19:46:12.115Z,17.17
2023-02-06T19:51:19.653Z,19.50
2023-02-06T19:56:25.130Z,14.88
2023-02-06T20:01:30.360Z,22.17
2023-02-06T20:06:36.658Z,15.23
2023-02-06T20:11:40.529Z,13.57
2023-02-06T20:16:46.105Z,12.88
2023-02-06T20:21:53.956Z,13.35
2023-02-06T20:26:59.847Z,13.55
2023-02-06T20:32:06.246Z,17.00
2023-02-06T20:37:11.728Z,16.03
2023-02-06T20:42:15.579Z,15.80
2023-02-06T20:47:19.300Z,26.60
2023-02-06T20:52:24.383Z,20.52
2023-02-06T20:57:28.399Z,24.25
2023-02-06T21:02:32.226Z,27.00
2023-02-06T21:07:38.977Z,32.78
2023-02-06T21:12:42.881Z,27.25
2023-02-06T21:17:46.807Z,32.58
2023-02-06T21:22:52.977Z,23.75
2023-02-06T21:27:56.813Z,28.40
2023-02-06T21:33:01.549Z,22.60
2023-02-06T21:38:07.165Z,20.50
2023-02-06T21:43:11.131Z,23.33
2023-02-06T21:48:15.544Z,21.77
2023-02-06T21:53:20.770Z,17.33
2023-02-06T21:58:24.462Z,13.25
2023-02-06T22:03:28.283Z,14.70
2023-02-06T22:08:34.487Z,14.85
2023-02-06T22:13:38.449Z,14.93
2023-02-06T22:18:42.885Z,12.15
2023-02-06T22:23:49.609Z,18.50
2023-02-06T22:28:53.390Z,16.60
2023-02-06T22:33:58.957Z,11.43
2023-02-06T22:39:06.753Z,14.13
2023-02-06T22:44:12.483Z,16.38
2023-02-06T22:49:16.843Z,15.15
2023-02-06T22:54:21.893Z,12.85
2023-02-06T22:59:26.648Z,15.48
2023-02-06T23:04:34.649Z,14.70
2023-02-06T23:09:40.829Z,17.15
2023-02-06T23:14:44.657Z,17.92
2023-02-06T23:19:48.421Z,23.25
2023-02-06T23:24:53.564Z,21.95
2023-02-06T23:29:57.302Z,26.05
2023-02-06T23:35:01.046Z,23.92
2023-02-06T23:40:08.319Z,28.92
2023-02-06T23:45:12.079Z,36.05
2023-02-06T23:50:15.871Z,27.63
2023-02-06T23:55:21.418Z,21.75
